Time;durP1;ratioP1;P1;durP2;ratioP2;P2;SDS_P1;SDS_P2;PMS_P1;PMS_P2;Temp;Humidity;BMP_temperature;BMP_pressure;BME280_temperature;BME280_humidity;BME280_pressure;Samples;Min_cycle;Max_cycle;Signal;HPM_P1;HPM_P2
2022/08/14 00:01:55;;;;;;;;;;;22.10;99.90;;;;;;5046758;28;19931;-77
2022/08/14 00:04:24;;;;;;;;;;;22.10;99.90;;;;;;5069001;28;20328;-77
2022/08/14 00:06:49;;;;;;;;;;;22.10;99.90;;;;;;5061395;28;19925;-78
2022/08/14 00:09:15;;;;;;;;;;;22.10;99.90;;;;;;5048411;28;20004;-77
2022/08/14 00:11:40;;;;;;;;;;;22.10;99.90;;;;;;5058332;28;19975;-78
2022/08/14 00:14:06;;;;;;;;;;;22.10;99.90;;;;;;5060283;28;20453;-77
2022/08/14 00:16:31;;;;;;;;;;;22.10;99.90;;;;;;5048145;28;19925;-77
2022/08/14 00:18:57;;;;;;;;;;;22.00;99.90;;;;;;5066487;28;19939;-78
2022/08/14 00:21:23;;;;;;;;;;;22.00;99.90;;;;;;5067688;28;19977;-76
2022/08/14 00:23:50;;;;;;;;;;;22.00;99.90;;;;;;5053795;28;20003;-77
2022/08/14 00:26:16;;;;;;;;;;;22.00;99.90;;;;;;5061697;28;19929;-77
2022/08/14 00:28:41;;;;;;;;;;;21.90;99.90;;;;;;5048338;28;20390;-78
2022/08/14 00:31:07;;;;;;;;;;;21.90;99.90;;;;;;5057385;28;19925;-77
2022/08/14 00:33:33;;;;;;;;;;;21.90;99.90;;;;;;5067735;28;19920;-77
2022/08/14 00:35:58;;;;;;;;;;;21.90;99.90;;;;;;5047312;28;19932;-78
2022/08/14 00:38:23;;;;;;;;;;;21.90;99.90;;;;;;5047903;28;19920;-77
2022/08/14 00:40:49;;;;;;;;;;;21.80;99.90;;;;;;5055548;28;19928;-77
2022/08/14 00:43:15;;;;;;;;;;;21.80;99.90;;;;;;5067823;28;19986;-77
2022/08/14 00:45:41;;;;;;;;;;;21.80;99.90;;;;;;5048301;28;19925;-77
2022/08/14 00:48:06;;;;;;;;;;;21.70;99.90;;;;;;5047951;28;19924;-77
2022/08/14 00:50:33;;;;;;;;;;;21.70;99.90;;;;;;5045382;28;19967;-77
2022/08/14 00:52:59;;;;;;;;;;;21.60;99.90;;;;;;5047768;28;19925;-77
2022/08/14 00:55:26;;;;;;;;;;;21.60;99.90;;;;;;5047539;28;19965;-77
2022/08/14 01:00:37;;;;;;;;;;;21.60;99.90;;;;;;5047070;28;19932;-77
2022/08/14 01:03:04;;;;;;;;;;;21.40;99.90;;;;;;5056257;28;19978;-78
2022/08/14 01:05:30;;;;;;;;;;;21.40;99.90;;;;;;5066746;28;20154;-77
2022/08/14 01:07:58;;;;;;;;;;;21.40;99.90;;;;;;5050284;28;20366;-77
2022/08/14 01:10:49;;;;;;;;;;;21.40;99.90;;;;;;5047631;28;19924;-77
2022/08/14 01:13:13;;;;;;;;;;;21.40;99.90;;;;;;5049236;28;19932;-77
2022/08/14 01:15:38;;;;;;;;;;;21.40;99.90;;;;;;5066189;28;19978;-77
2022/08/14 01:21:05;;;;;;;;;;;21.30;99.90;;;;;;5034099;28;20557;-77
2022/08/14 01:23:32;;;;;;;;;;;21.20;99.90;;;;;;5047191;28;19924;-78
2022/08/14 01:25:57;;;;;;;;;;;21.20;99.90;;;;;;5050491;28;19925;-77
2022/08/14 01:28:25;;;;;;;;;;;21.20;99.90;;;;;;5047258;28;19929;-78
2022/08/14 01:30:54;;;;;;;;;;;21.10;99.90;;;;;;5053408;28;19928;-77
2022/08/14 01:33:21;;;;;;;;;;;21.10;99.90;;;;;;5067730;28;19979;-78
2022/08/14 01:35:46;;;;;;;;;;;21.10;99.90;;;;;;5046733;28;20389;-77
2022/08/14 01:38:13;;;;;;;;;;;21.10;99.90;;;;;;5047319;28;19964;-77
2022/08/14 01:40:39;;;;;;;;;;;21.00;99.90;;;;;;5049652;28;19925;-77
2022/08/14 01:43:16;;;;;;;;;;;21.00;99.90;;;;;;5066956;28;19932;-78
2022/08/14 01:45:50;;;;;;;;;;;20.90;99.90;;;;;;5047637;28;19925;-77
2022/08/14 01:48:16;;;;;;;;;;;20.90;99.90;;;;;;5046280;28;19925;-77
2022/08/14 01:50:41;;;;;;;;;;;20.90;99.90;;;;;;5050327;28;19925;-77
2022/08/14 01:53:07;;;;;;;;;;;20.90;99.90;;;;;;5058338;28;19925;-77
2022/08/14 01:55:34;;;;;;;;;;;20.80;99.90;;;;;;5046638;28;20326;-77
2022/08/14 01:58:00;;;;;;;;;;;20.80;99.90;;;;;;5062561;28;19968;-76
2022/08/14 02:00:25;;;;;;;;;;;20.80;99.90;;;;;;5047959;28;19967;-77
2022/08/14 02:02:51;;;;;;;;;;;20.80;99.90;;;;;;5052478;28;20373;-76
2022/08/14 02:05:16;;;;;;;;;;;20.80;99.90;;;;;;5067538;28;19924;-77
2022/08/14 02:07:44;;;;;;;;;;;20.80;99.90;;;;;;5065973;28;19924;-77
2022/08/14 02:10:11;;;;;;;;;;;20.80;99.90;;;;;;5045533;28;19925;-77
2022/08/14 02:12:36;;;;;;;;;;;20.80;99.90;;;;;;5046553;28;19929;-77
2022/08/14 02:15:03;;;;;;;;;;;20.80;99.90;;;;;;5063068;28;19944;-78
2022/08/14 02:17:31;;;;;;;;;;;20.80;99.90;;;;;;5067008;28;19931;-77
2022/08/14 02:19:57;;;;;;;;;;;20.80;99.90;;;;;;5050596;28;19925;-78
2022/08/14 02:22:22;;;;;;;;;;;20.80;99.90;;;;;;5045203;28;19970;-77
2022/08/14 02:24:48;;;;;;;;;;;20.80;99.90;;;;;;5049916;28;19979;-77
2022/08/14 02:27:14;;;;;;;;;;;20.80;99.90;;;;;;5058954;28;19921;-77
2022/08/14 02:29:39;;;;;;;;;;;20.80;99.90;;;;;;5046496;28;19925;-77
2022/08/14 02:32:05;;;;;;;;;;;20.80;99.90;;;;;;5046701;28;19925;-77
2022/08/14 02:34:32;;;;;;;;;;;20.80;99.90;;;;;;5056477;28;19947;-77
2022/08/14 02:36:59;;;;;;;;;;;20.70;99.90;;;;;;5045599;28;20331;-77
2022/08/14 02:39:26;;;;;;;;;;;20.70;99.90;;;;;;5049388;28;19925;-77
2022/08/14 02:41:51;;;;;;;;;;;20.70;99.90;;;;;;5066638;28;19932;-78
2022/08/14 02:44:19;;;;;;;;;;;20.70;99.90;;;;;;5031660;28;19948;-77
2022/08/14 02:46:45;;;;;;;;;;;20.70;99.90;;;;;;5051284;28;19925;-77
2022/08/14 02:49:11;;;;;;;;;;;20.70;99.90;;;;;;5066352;28;19924;-77
2022/08/14 02:51:37;;;;;;;;;;;20.60;99.90;;;;;;5049296;28;19972;-77
2022/08/14 02:54:04;;;;;;;;;;;20.60;99.90;;;;;;5049756;28;19978;-78
2022/08/14 02:56:29;;;;;;;;;;;20.60;99.90;;;;;;5049748;28;20002;-78
2022/08/14 02:58:56;;;;;;;;;;;20.60;99.90;;;;;;5061099;28;19925;-77
2022/08/14 03:01:22;;;;;;;;;;;20.60;99.90;;;;;;5049713;28;20840;-77
2022/08/14 03:03:48;;;;;;;;;;;20.60;99.90;;;;;;5062653;28;20288;-78
2022/08/14 03:06:15;;;;;;;;;;;20.60;99.90;;;;;;5069264;28;19975;-77
2022/08/14 03:08:41;;;;;;;;;;;20.50;99.90;;;;;;5064709;28;19929;-78
2022/08/14 03:11:08;;;;;;;;;;;20.50;99.90;;;;;;5049818;28;19932;-76
2022/08/14 03:13:35;;;;;;;;;;;20.50;99.90;;;;;;5049629;28;19978;-78
2022/08/14 03:16:01;;;;;;;;;;;20.50;99.90;;;;;;5058198;28;19924;-77
2022/08/14 03:18:27;;;;;;;;;;;20.50;99.90;;;;;;5066364;28;19936;-77
2022/08/14 03:20:53;;;;;;;;;;;20.40;99.90;;;;;;5048593;28;19925;-78
2022/08/14 03:23:19;;;;;;;;;;;20.50;99.90;;;;;;5049503;28;20019;-77
2022/08/14 03:25:45;;;;;;;;;;;20.40;99.90;;;;;;5049504;28;19964;-77
2022/08/14 03:28:11;;;;;;;;;;;20.40;99.90;;;;;;5049582;28;20535;-77
2022/08/14 03:30:37;;;;;;;;;;;20.40;99.90;;;;;;5053195;28;19925;-77
2022/08/14 03:33:03;;;;;;;;;;;20.40;99.90;;;;;;5055182;28;20420;-77
2022/08/14 03:35:29;;;;;;;;;;;20.30;99.90;;;;;;5051855;28;19932;-75
2022/08/14 03:38:03;;;;;;;;;;;20.30;99.90;;;;;;5049065;28;20402;-77
2022/08/14 03:40:28;;;;;;;;;;;20.30;99.90;;;;;;5049145;28;19920;-74
2022/08/14 03:42:53;;;;;;;;;;;20.30;99.90;;;;;;5047916;28;20002;-76
2022/08/14 03:45:19;;;;;;;;;;;20.30;99.90;;;;;;5058413;28;19931;-78
2022/08/14 03:47:44;;;;;;;;;;;20.30;99.90;;;;;;5055271;28;20264;-77
2022/08/14 03:50:10;;;;;;;;;;;20.30;99.90;;;;;;5047928;28;19925;-77
2022/08/14 03:52:36;;;;;;;;;;;20.30;99.90;;;;;;5067825;28;19982;-77
2022/08/14 03:55:05;;;;;;;;;;;20.20;99.90;;;;;;5069423;28;19932;-77
2022/08/14 03:57:32;;;;;;;;;;;20.30;99.90;;;;;;5055805;28;20119;-78
2022/08/14 03:59:58;;;;;;;;;;;20.20;99.90;;;;;;5049620;28;20012;-77
2022/08/14 04:02:24;;;;;;;;;;;20.20;99.90;;;;;;5068978;28;19925;-77
2022/08/14 04:04:49;;;;;;;;;;;20.20;99.90;;;;;;5049330;28;19983;-77
2022/08/14 04:07:16;;;;;;;;;;;20.10;99.90;;;;;;5047830;28;20421;-77
2022/08/14 04:09:41;;;;;;;;;;;20.10;99.90;;;;;;5047986;28;19924;-77
2022/08/14 04:12:07;;;;;;;;;;;20.10;99.90;;;;;;5048815;28;19932;-77
2022/08/14 04:14:32;;;;;;;;;;;20.10;99.90;;;;;;5048129;28;19925;-77
2022/08/14 04:16:58;;;;;;;;;;;20.10;99.90;;;;;;5048428;28;19917;-77
2022/08/14 04:19:23;;;;;;;;;;;20.10;99.90;;;;;;5047911;28;19971;-73
2022/08/14 04:21:49;;;;;;;;;;;20.00;99.90;;;;;;5046640;28;20516;-77
2022/08/14 04:24:16;;;;;;;;;;;20.00;99.90;;;;;;5048347;28;19932;-77
2022/08/14 04:26:43;;;;;;;;;;;20.00;99.90;;;;;;5046977;28;20359;-77
2022/08/14 04:29:09;;;;;;;;;;;19.90;99.90;;;;;;5048192;28;19980;-77
2022/08/14 04:31:34;;;;;;;;;;;20.00;99.90;;;;;;5047793;28;20398;-77
2022/08/14 04:34:00;;;;;;;;;;;19.90;99.90;;;;;;5047953;28;19931;-77
2022/08/14 04:36:25;;;;;;;;;;;19.90;99.90;;;;;;5045863;28;19929;-77
2022/08/14 04:44:19;;;;;;;;;;;19.90;99.90;;;;;;5064259;28;19932;-76
2022/08/14 04:49:31;;;;;;;;;;;19.90;99.90;;;;;;5031861;28;19925;-77
2022/08/14 04:51:57;;;;;;;;;;;19.90;99.90;;;;;;5048023;28;19931;-77
2022/08/14 04:54:25;;;;;;;;;;;20.00;99.90;;;;;;5046813;28;19924;-77
2022/08/14 04:56:51;;;;;;;;;;;20.00;99.90;;;;;;5045982;28;19929;-76
2022/08/14 04:59:17;;;;;;;;;;;19.90;99.90;;;;;;5052865;28;20282;-77
2022/08/14 05:01:43;;;;;;;;;;;20.00;99.90;;;;;;5067449;28;19924;-76
2022/08/14 05:04:09;;;;;;;;;;;20.00;99.90;;;;;;5058141;28;19994;-76
2022/08/14 05:06:34;;;;;;;;;;;20.00;99.90;;;;;;5059068;28;19932;-77
2022/08/14 05:09:00;;;;;;;;;;;20.00;99.90;;;;;;5067616;28;19925;-76
2022/08/14 05:11:26;;;;;;;;;;;20.00;99.90;;;;;;5049643;28;19925;-76
2022/08/14 05:13:51;;;;;;;;;;;20.10;99.90;;;;;;5047092;28;19921;-77
2022/08/14 05:16:17;;;;;;;;;;;20.10;99.90;;;;;;5047461;28;20069;-77
2022/08/14 05:18:45;;;;;;;;;;;20.10;99.90;;;;;;5046347;28;20391;-76
2022/08/14 05:21:10;;;;;;;;;;;20.10;99.90;;;;;;5046171;28;19972;-77
2022/08/14 05:23:38;;;;;;;;;;;20.10;99.90;;;;;;5045776;28;19975;-77
2022/08/14 05:26:11;;;;;;;;;;;20.10;99.90;;;;;;5046786;28;19979;-77
2022/08/14 05:28:38;;;;;;;;;;;20.20;99.90;;;;;;5046725;28;19925;-77
2022/08/14 05:31:07;;;;;;;;;;;20.20;99.90;;;;;;5047085;28;19932;-77
2022/08/14 05:33:33;;;;;;;;;;;20.20;99.90;;;;;;5060336;28;19931;-76
2022/08/14 05:36:00;;;;;;;;;;;20.30;99.90;;;;;;5046299;28;19925;-77
2022/08/14 05:38:27;;;;;;;;;;;20.20;99.90;;;;;;5045843;28;19925;-77
2022/08/14 05:40:53;;;;;;;;;;;20.30;99.90;;;;;;5061860;28;20394;-76
2022/08/14 05:43:19;;;;;;;;;;;20.30;99.90;;;;;;5046911;28;19986;-77
2022/08/14 05:45:44;;;;;;;;;;;20.30;99.90;;;;;;5051822;28;19932;-77
2022/08/14 05:48:12;;;;;;;;;;;20.40;99.90;;;;;;5058782;28;20015;-77
2022/08/14 05:50:39;;;;;;;;;;;20.40;99.90;;;;;;5057524;28;19925;-77
2022/08/14 05:53:04;;;;;;;;;;;20.40;99.90;;;;;;5067009;28;19962;-76
2022/08/14 05:55:30;;;;;;;;;;;20.40;99.90;;;;;;5048064;28;20200;-77
2022/08/14 05:57:57;;;;;;;;;;;20.50;99.90;;;;;;5051670;28;19924;-76
2022/08/14 06:00:25;;;;;;;;;;;20.50;99.90;;;;;;5065143;28;20007;-78
2022/08/14 06:02:50;;;;;;;;;;;20.50;99.90;;;;;;5046280;28;19968;-78
2022/08/14 06:05:16;;;;;;;;;;;20.50;99.90;;;;;;5049278;28;19979;-79
2022/08/14 06:07:42;;;;;;;;;;;20.60;99.90;;;;;;5045048;28;20275;-83
2022/08/14 06:10:08;;;;;;;;;;;20.60;99.90;;;;;;5043775;28;19925;-84
2022/08/14 06:12:33;;;;;;;;;;;20.60;99.90;;;;;;5046196;28;19932;-83
2022/08/14 06:14:59;;;;;;;;;;;20.70;99.90;;;;;;5046660;28;20298;-82
2022/08/14 06:17:25;;;;;;;;;;;20.70;99.90;;;;;;5043994;28;19929;-84
2022/08/14 06:19:53;;;;;;;;;;;20.70;99.90;;;;;;5042207;28;20767;-84
2022/08/14 06:22:19;;;;;;;;;;;20.80;99.90;;;;;;5045458;28;19929;-82
2022/08/14 06:24:44;;;;;;;;;;;20.80;99.90;;;;;;5039785;28;19986;-83
2022/08/14 06:27:10;;;;;;;;;;;20.80;99.90;;;;;;5047494;28;19932;-83
2022/08/14 06:29:36;;;;;;;;;;;20.90;99.90;;;;;;5050984;28;19970;-84
2022/08/14 06:32:02;;;;;;;;;;;20.90;99.90;;;;;;5061981;28;19928;-85
2022/08/14 06:34:28;;;;;;;;;;;20.90;99.90;;;;;;5050071;28;20019;-84
2022/08/14 06:36:55;;;;;;;;;;;21.00;99.90;;;;;;5048722;28;20011;-84
2022/08/14 06:39:21;;;;;;;;;;;21.00;99.90;;;;;;5048414;28;20021;-84
2022/08/14 06:41:47;;;;;;;;;;;21.00;99.90;;;;;;5049785;28;20014;-84
2022/08/14 06:44:12;;;;;;;;;;;21.10;99.90;;;;;;5048681;28;19936;-85
2022/08/14 06:46:38;;;;;;;;;;;21.10;99.90;;;;;;5049554;28;20031;-85
2022/08/14 06:49:04;;;;;;;;;;;21.10;99.90;;;;;;5050614;28;19925;-85
2022/08/14 06:51:29;;;;;;;;;;;21.10;99.90;;;;;;5043405;28;19925;-85
2022/08/14 06:53:55;;;;;;;;;;;21.20;99.90;;;;;;5041975;28;19925;-86
2022/08/14 06:56:22;;;;;;;;;;;21.20;99.90;;;;;;5047372;28;19965;-85
2022/08/14 06:58:47;;;;;;;;;;;21.30;99.90;;;;;;5047808;28;19932;-84
2022/08/14 07:06:42;;;;;;;;;;;21.30;99.90;;;;;;5068583;28;19948;-85
2022/08/14 07:09:10;;;;;;;;;;;21.40;99.90;;;;;;5069776;28;20501;-84
2022/08/14 07:11:36;;;;;;;;;;;21.40;99.90;;;;;;5050385;28;20387;-84
2022/08/14 07:14:02;;;;;;;;;;;21.50;99.90;;;;;;5044359;28;19936;-87
2022/08/14 07:16:27;;;;;;;;;;;21.50;99.90;;;;;;5046438;28;19940;-84
2022/08/14 07:18:53;;;;;;;;;;;21.50;99.90;;;;;;5031734;28;19929;-85
2022/08/14 07:21:18;;;;;;;;;;;21.60;99.90;;;;;;5048610;28;19929;-85
2022/08/14 07:23:44;;;;;;;;;;;21.60;99.90;;;;;;5041762;28;19980;-85
2022/08/14 07:26:09;;;;;;;;;;;21.60;99.90;;;;;;5043017;28;19924;-83
2022/08/14 07:28:36;;;;;;;;;;;21.60;99.90;;;;;;5050832;28;19924;-85
2022/08/14 07:31:07;;;;;;;;;;;21.70;99.90;;;;;;5067226;28;19924;-84
2022/08/14 07:33:34;;;;;;;;;;;21.70;99.90;;;;;;5049015;28;19979;-85
2022/08/14 07:36:01;;;;;;;;;;;21.80;99.90;;;;;;5042915;28;19929;-85
2022/08/14 07:38:26;;;;;;;;;;;21.80;99.90;;;;;;5045386;28;20066;-85
2022/08/14 07:40:52;;;;;;;;;;;21.80;99.90;;;;;;5039442;28;20041;-84
2022/08/14 07:43:18;;;;;;;;;;;21.90;99.90;;;;;;5045862;28;19929;-82
2022/08/14 07:45:43;;;;;;;;;;;22.00;99.90;;;;;;5045853;28;19980;-79
2022/08/14 07:48:09;;;;;;;;;;;22.00;99.90;;;;;;5045125;28;19973;-78
2022/08/14 07:50:35;;;;;;;;;;;22.10;99.90;;;;;;5043737;28;19932;-79
2022/08/14 07:53:01;;;;;;;;;;;22.20;99.90;;;;;;5047819;28;20418;-80
2022/08/14 07:55:27;;;;;;;;;;;22.20;99.90;;;;;;5048513;28;19975;-80
2022/08/14 07:57:53;;;;;;;;;;;22.30;99.90;;;;;;5048839;28;19946;-81
2022/08/14 08:00:21;;;;;;;;;;;22.30;99.90;;;;;;5031288;28;19974;-79
2022/08/14 08:02:48;;;;;;;;;;;22.40;99.90;;;;;;5048964;28;19924;-79
2022/08/14 08:05:14;;;;;;;;;;;22.50;99.90;;;;;;5040634;28;19935;-80
2022/08/14 08:07:40;;;;;;;;;;;22.50;99.90;;;;;;5046986;28;20307;-79
2022/08/14 08:10:30;;;;;;;;;;;22.50;99.90;;;;;;5049047;28;19925;-78
2022/08/14 08:12:59;;;;;;;;;;;22.60;99.90;;;;;;5049519;28;20336;-79
2022/08/14 08:15:25;;;;;;;;;;;22.60;99.90;;;;;;5069374;28;19925;-80
2022/08/14 08:17:51;;;;;;;;;;;22.70;99.90;;;;;;5054084;28;19980;-83
2022/08/14 08:20:18;;;;;;;;;;;22.70;99.90;;;;;;5042867;28;19975;-81
2022/08/14 08:22:44;;;;;;;;;;;22.80;99.90;;;;;;5048757;28;20446;-78
2022/08/14 08:25:11;;;;;;;;;;;22.80;99.90;;;;;;5047513;28;19964;-83
2022/08/14 08:27:36;;;;;;;;;;;22.90;99.90;;;;;;5037247;28;19928;-80
2022/08/14 08:30:08;;;;;;;;;;;22.90;99.90;;;;;;5043695;28;19924;-82
2022/08/14 08:32:41;;;;;;;;;;;23.00;99.90;;;;;;5048782;28;19972;-80
2022/08/14 08:35:17;;;;;;;;;;;23.00;99.90;;;;;;5045939;28;19931;-80
2022/08/14 08:37:43;;;;;;;;;;;23.00;99.90;;;;;;5047133;28;19935;-81
2022/08/14 08:40:08;;;;;;;;;;;23.10;99.90;;;;;;5048790;28;19928;-82
2022/08/14 08:42:34;;;;;;;;;;;23.10;99.90;;;;;;5048354;28;20357;-81
2022/08/14 08:44:59;;;;;;;;;;;23.20;99.90;;;;;;5047223;28;19925;-80
2022/08/14 08:47:25;;;;;;;;;;;23.20;99.90;;;;;;5047519;28;19925;-81
2022/08/14 08:49:52;;;;;;;;;;;23.30;99.90;;;;;;5046946;28;20382;-81
2022/08/14 08:52:19;;;;;;;;;;;23.30;99.90;;;;;;5038355;28;19940;-80
2022/08/14 08:54:54;;;;;;;;;;;23.40;99.90;;;;;;5043647;28;19983;-80
2022/08/14 08:57:19;;;;;;;;;;;23.40;99.90;;;;;;5047558;28;19925;-80
2022/08/14 08:59:45;;;;;;;;;;;23.50;99.90;;;;;;5046556;28;19955;-80
2022/08/14 09:02:11;;;;;;;;;;;23.50;99.90;;;;;;5046996;28;20664;-80
2022/08/14 09:04:40;;;;;;;;;;;23.60;99.90;;;;;;5045560;28;19925;-80
2022/08/14 09:07:07;;;;;;;;;;;23.60;99.90;;;;;;5046865;28;19924;-80
2022/08/14 09:09:33;;;;;;;;;;;23.60;99.90;;;;;;5048211;28;19972;-80
2022/08/14 09:12:00;;;;;;;;;;;23.70;99.90;;;;;;5048388;28;19924;-80
2022/08/14 09:14:28;;;;;;;;;;;23.80;99.90;;;;;;5041436;28;19986;-80
2022/08/14 09:16:54;;;;;;;;;;;23.80;99.90;;;;;;5036836;28;19925;-80
2022/08/14 09:19:20;;;;;;;;;;;23.90;99.90;;;;;;5027445;28;19925;-80
2022/08/14 09:21:45;;;;;;;;;;;23.90;99.90;;;;;;5039624;28;20355;-80
2022/08/14 09:24:11;;;;;;;;;;;24.00;99.90;;;;;;5038020;28;19979;-81
2022/08/14 09:26:38;;;;;;;;;;;24.10;99.90;;;;;;5037573;28;19956;-80
2022/08/14 09:29:04;;;;;;;;;;;24.10;99.90;;;;;;5041687;28;20019;-80
2022/08/14 09:31:31;;;;;;;;;;;24.20;99.90;;;;;;5037888;28;20031;-80
2022/08/14 09:34:16;;;;;;;;;;;24.20;99.90;;;;;;5036614;28;20287;-81
2022/08/14 09:36:47;;;;;;;;;;;24.30;99.90;;;;;;5032884;28;19954;-81
2022/08/14 09:39:32;;;;;;;;;;;24.40;99.90;;;;;;5037002;28;19926;-80
2022/08/14 09:42:01;;;;;;;;;;;24.40;99.90;;;;;;5019704;28;19932;-82
2022/08/14 09:44:39;;;;;;;;;;;24.40;99.90;;;;;;5041083;28;19924;-80
2022/08/14 09:47:04;;;;;;;;;;;24.40;99.90;;;;;;5040616;28;19971;-80
2022/08/14 09:49:34;;;;;;;;;;;24.40;99.90;;;;;;5038573;28;19973;-80
2022/08/14 09:52:04;;;;;;;;;;;24.50;99.90;;;;;;5033400;28;19972;-82
2022/08/14 09:54:37;;;;;;;;;;;24.50;99.90;;;;;;5038358;28;20349;-82
2022/08/14 09:57:03;;;;;;;;;;;24.60;99.90;;;;;;5044748;28;19931;-81
2022/08/14 09:59:38;;;;;;;;;;;24.60;99.90;;;;;;5046499;28;20021;-80
2022/08/14 10:02:05;;;;;;;;;;;24.60;99.90;;;;;;5038254;28;19940;-80
2022/08/14 10:04:31;;;;;;;;;;;24.60;99.90;;;;;;5043653;28;19932;-82
2022/08/14 10:06:57;;;;;;;;;;;24.70;99.90;;;;;;5047356;28;19925;-80
2022/08/14 10:09:23;;;;;;;;;;;24.70;99.90;;;;;;5045635;28;19931;-80
2022/08/14 10:11:53;;;;;;;;;;;24.80;99.90;;;;;;5047614;28;19928;-80
2022/08/14 10:14:23;;;;;;;;;;;24.90;99.90;;;;;;5048616;28;19929;-81
2022/08/14 10:16:55;;;;;;;;;;;24.90;99.90;;;;;;5037063;28;19929;-80
2022/08/14 10:19:22;;;;;;;;;;;24.90;99.90;;;;;;5046559;28;19964;-80
2022/08/14 10:22:07;;;;;;;;;;;25.00;99.90;;;;;;5040773;28;19925;-82
2022/08/14 10:24:46;;;;;;;;;;;25.00;99.90;;;;;;5045125;28;19973;-81
2022/08/14 10:27:15;;;;;;;;;;;25.00;99.90;;;;;;5041959;28;19931;-80
2022/08/14 10:29:42;;;;;;;;;;;25.10;99.90;;;;;;5042281;28;21118;-79
2022/08/14 10:32:10;;;;;;;;;;;25.10;99.90;;;;;;5039079;28;19933;-81
2022/08/14 10:34:38;;;;;;;;;;;25.10;99.90;;;;;;5042404;28;19986;-81
2022/08/14 10:37:08;;;;;;;;;;;25.10;99.90;;;;;;5043731;28;20008;-82
2022/08/14 10:39:37;;;;;;;;;;;25.20;99.90;;;;;;5046462;28;19956;-80
2022/08/14 10:42:05;;;;;;;;;;;25.20;99.90;;;;;;5043458;28;20398;-80
2022/08/14 10:44:32;;;;;;;;;;;25.20;99.90;;;;;;5040287;28;19949;-80
2022/08/14 10:47:01;;;;;;;;;;;25.20;99.90;;;;;;5042393;28;19925;-79
2022/08/14 10:49:27;;;;;;;;;;;25.30;99.90;;;;;;5039383;28;20411;-81
2022/08/14 10:51:54;;;;;;;;;;;25.40;99.90;;;;;;5045442;28;19968;-84
2022/08/14 10:54:29;;;;;;;;;;;25.40;99.90;;;;;;5048673;28;19928;-80
2022/08/14 10:56:56;;;;;;;;;;;25.50;99.90;;;;;;5048321;28;20288;-80
2022/08/14 10:59:23;;;;;;;;;;;25.50;99.90;;;;;;5046342;28;19975;-80
2022/08/14 11:01:48;;;;;;;;;;;25.50;99.90;;;;;;5044874;28;20443;-79
2022/08/14 11:04:27;;;;;;;;;;;25.50;99.90;;;;;;5045228;28;19925;-80
2022/08/14 11:06:52;;;;;;;;;;;25.50;99.90;;;;;;5045949;28;20004;-80
2022/08/14 11:09:18;;;;;;;;;;;25.60;99.90;;;;;;5042511;28;20180;-79
2022/08/14 11:11:43;;;;;;;;;;;25.60;99.90;;;;;;5046446;28;19936;-78
2022/08/14 11:14:09;;;;;;;;;;;25.60;99.90;;;;;;5049922;28;19932;-80
2022/08/14 11:16:35;;;;;;;;;;;25.70;99.90;;;;;;5048304;28;20337;-79
2022/08/14 11:19:01;;;;;;;;;;;25.70;99.90;;;;;;5048045;28;20329;-79
2022/08/14 11:21:28;;;;;;;;;;;25.70;99.90;;;;;;5051650;28;19925;-79
2022/08/14 11:23:56;;;;;;;;;;;25.80;99.90;;;;;;5050580;28;19928;-79
2022/08/14 11:26:23;;;;;;;;;;;25.80;99.90;;;;;;5050294;28;19924;-80
2022/08/14 11:28:49;;;;;;;;;;;25.80;99.90;;;;;;5049990;28;19952;-79
2022/08/14 11:31:17;;;;;;;;;;;25.80;99.90;;;;;;5049566;28;20379;-82
2022/08/14 11:33:46;;;;;;;;;;;25.80;99.90;;;;;;5049586;28;19929;-79
2022/08/14 11:36:12;;;;;;;;;;;25.90;99.90;;;;;;5049176;28;19929;-80
2022/08/14 11:38:39;;;;;;;;;;;25.90;99.90;;;;;;5060483;28;19931;-78
2022/08/14 11:41:06;;;;;;;;;;;26.00;99.90;;;;;;5069856;28;19925;-79
2022/08/14 11:43:36;;;;;;;;;;;26.00;99.90;;;;;;5068398;28;19925;-86
2022/08/14 11:46:02;;;;;;;;;;;26.00;99.90;;;;;;5046685;28;19929;-79
2022/08/14 11:48:28;;;;;;;;;;;26.00;99.90;;;;;;5050313;28;19936;-82
2022/08/14 11:50:53;;;;;;;;;;;26.00;99.90;;;;;;5042611;28;19932;-81
2022/08/14 11:53:20;;;;;;;;;;;26.10;99.90;;;;;;5038365;28;19936;-86
2022/08/14 11:55:46;;;;;;;;;;;26.20;99.90;;;;;;5039785;28;19931;-84
2022/08/14 11:58:14;;;;;;;;;;;26.20;99.90;;;;;;5046640;28;20360;-87
2022/08/14 12:00:49;;;;;;;;;;;26.20;99.90;;;;;;5045140;28;19964;-80
2022/08/14 12:03:15;;;;;;;;;;;26.20;99.90;;;;;;5042576;28;19925;-78
2022/08/14 12:05:43;;;;;;;;;;;26.30;99.90;;;;;;5047409;28;19925;-81
2022/08/14 12:08:09;;;;;;;;;;;26.30;99.90;;;;;;5047004;28;19924;-81
2022/08/14 12:10:36;;;;;;;;;;;26.40;99.90;;;;;;5044753;28;20398;-77
2022/08/14 12:13:11;;;;;;;;;;;26.40;99.60;;;;;;5046149;28;19932;-80
2022/08/14 12:15:37;;;;;;;;;;;26.30;99.60;;;;;;5055908;28;20320;-78
2022/08/14 12:18:02;;;;;;;;;;;26.30;99.90;;;;;;5041601;28;19932;-79
2022/08/14 12:20:32;;;;;;;;;;;26.30;99.90;;;;;;5048471;28;19924;-77
2022/08/14 12:22:59;;;;;;;;;;;26.30;99.80;;;;;;5018854;28;19979;-76
2022/08/14 12:25:25;;;;;;;;;;;26.40;99.90;;;;;;5043675;28;19936;-78
2022/08/14 12:27:52;;;;;;;;;;;26.50;99.90;;;;;;5042206;28;19929;-77
2022/08/14 12:30:31;;;;;;;;;;;26.50;99.90;;;;;;5047788;28;20023;-78
2022/08/14 12:32:57;;;;;;;;;;;26.60;99.90;;;;;;5046010;28;20407;-77
2022/08/14 12:35:22;;;;;;;;;;;26.60;99.90;;;;;;5038592;28;19928;-76
2022/08/14 12:37:49;;;;;;;;;;;26.60;99.90;;;;;;5037838;28;20892;-80
2022/08/14 12:40:15;;;;;;;;;;;26.60;99.80;;;;;;5041041;28;19955;-81
2022/08/14 12:42:43;;;;;;;;;;;26.70;99.90;;;;;;5042085;28;20035;-86
2022/08/14 12:45:11;;;;;;;;;;;26.70;99.50;;;;;;5036675;28;19975;-80
2022/08/14 12:47:38;;;;;;;;;;;26.70;99.60;;;;;;5029111;28;19979;-77
2022/08/14 12:50:04;;;;;;;;;;;26.80;99.10;;;;;;5047626;28;19925;-80
2022/08/14 12:52:31;;;;;;;;;;;26.90;99.40;;;;;;5045727;28;19932;-82
2022/08/14 12:55:04;;;;;;;;;;;26.90;99.60;;;;;;5046046;28;20020;-79
2022/08/14 12:57:50;;;;;;;;;;;26.90;99.50;;;;;;5042121;28;19980;-81
2022/08/14 13:00:17;;;;;;;;;;;26.90;99.10;;;;;;5036841;28;19925;-77
2022/08/14 13:02:49;;;;;;;;;;;26.90;98.60;;;;;;5042330;28;19924;-79
2022/08/14 13:05:14;;;;;;;;;;;26.90;98.70;;;;;;5037231;28;19931;-81
2022/08/14 13:07:41;;;;;;;;;;;27.00;97.40;;;;;;5024719;28;20019;-82
2022/08/14 13:10:09;;;;;;;;;;;27.00;98.10;;;;;;5047947;28;19948;-79
2022/08/14 13:12:35;;;;;;;;;;;27.00;98.20;;;;;;5046673;28;19952;-80
2022/08/14 13:15:01;;;;;;;;;;;27.00;99.40;;;;;;5043398;28;19925;-78
2022/08/14 13:17:27;;;;;;;;;;;27.10;99.70;;;;;;5042132;28;20007;-79
2022/08/14 13:19:54;;;;;;;;;;;27.10;99.10;;;;;;5045105;28;19951;-78
2022/08/14 13:22:25;;;;;;;;;;;27.20;99.10;;;;;;5045581;28;19971;-78
2022/08/14 13:24:51;;;;;;;;;;;27.20;99.00;;;;;;5042556;28;19941;-77
2022/08/14 13:27:19;;;;;;;;;;;27.20;99.00;;;;;;5040774;28;19924;-83
2022/08/14 13:29:45;;;;;;;;;;;27.30;98.10;;;;;;5034821;28;19932;-77
2022/08/14 13:32:11;;;;;;;;;;;27.30;98.10;;;;;;5047923;28;20011;-79
2022/08/14 13:34:39;;;;;;;;;;;27.30;98.00;;;;;;5046219;28;19932;-76
2022/08/14 13:37:06;;;;;;;;;;;27.30;98.40;;;;;;5047699;28;19932;-86
2022/08/14 13:39:31;;;;;;;;;;;27.30;97.60;;;;;;5058923;28;19931;-87
2022/08/14 13:42:03;;;;;;;;;;;27.30;97.80;;;;;;5050143;28;19925;-85
2022/08/14 13:44:34;;;;;;;;;;;27.40;97.40;;;;;;5047001;28;21344;-81
2022/08/14 13:47:03;;;;;;;;;;;27.30;97.30;;;;;;5047775;28;19929;-81
2022/08/14 13:49:28;;;;;;;;;;;27.40;97.10;;;;;;5047613;28;19925;-83
2022/08/14 13:51:57;;;;;;;;;;;27.40;97.30;;;;;;5047238;28;19924;-81
2022/08/14 13:54:24;;;;;;;;;;;27.40;97.60;;;;;;5046956;28;19928;-81
2022/08/14 13:56:50;;;;;;;;;;;27.40;96.90;;;;;;5045768;28;20291;-78
2022/08/14 13:59:15;;;;;;;;;;;27.50;96.00;;;;;;5045792;28;19932;-82
2022/08/14 14:01:44;;;;;;;;;;;27.40;97.30;;;;;;5046098;28;19932;-82
2022/08/14 14:04:17;;;;;;;;;;;27.40;97.20;;;;;;5045388;28;20374;-82
2022/08/14 14:06:45;;;;;;;;;;;27.40;97.50;;;;;;5032516;28;19971;-85
2022/08/14 14:09:12;;;;;;;;;;;27.50;97.30;;;;;;5046061;28;20310;-79
2022/08/14 14:11:38;;;;;;;;;;;27.50;96.50;;;;;;5044751;28;19970;-83
2022/08/14 14:14:03;;;;;;;;;;;27.50;96.80;;;;;;5043553;28;19933;-90
2022/08/14 14:16:29;;;;;;;;;;;27.50;95.90;;;;;;5044309;28;19940;-83
2022/08/14 14:18:55;;;;;;;;;;;27.60;95.80;;;;;;5046259;28;19977;-86
2022/08/14 14:21:22;;;;;;;;;;;27.60;95.30;;;;;;5046444;28;20491;-82
2022/08/14 14:23:48;;;;;;;;;;;27.60;95.00;;;;;;5049651;28;20382;-90
2022/08/14 14:26:15;;;;;;;;;;;27.60;94.80;;;;;;5046238;28;19932;-82
2022/08/14 14:28:41;;;;;;;;;;;27.70;94.90;;;;;;5045826;28;19925;-81
2022/08/14 14:31:07;;;;;;;;;;;27.70;94.40;;;;;;5046301;28;19925;-82
2022/08/14 14:33:34;;;;;;;;;;;27.70;94.80;;;;;;5045515;28;19921;-81
2022/08/14 14:36:01;;;;;;;;;;;27.70;94.70;;;;;;5046820;28;19931;-82